sensor_id;sensor_type;location;lat;lon;timestamp;temperature;humidity
8214;DHT22;4148;47.974;7.824;2022-11-20T00:00:57;7.50;99.90
8214;DHT22;4148;47.974;7.824;2022-11-20T00:03:25;7.50;99.90
8214;DHT22;4148;47.974;7.824;2022-11-20T00:05:53;7.50;99.90
8214;DHT22;4148;47.974;7.824;2022-11-20T00:08:20;7.60;99.90
8214;DHT22;4148;47.974;7.824;2022-11-20T00:10:48;7.60;99.90
8214;DHT22;4148;47.974;7.824;2022-11-20T00:13:16;7.60;99.90
8214;DHT22;4148;47.974;7.824;2022-11-20T00:15:45;7.50;99.90
8214;DHT22;4148;47.974;7.824;2022-11-20T00:18:13;7.40;99.90
8214;DHT22;4148;47.974;7.824;2022-11-20T00:20:41;7.40;99.90
8214;DHT22;4148;47.974;7.824;2022-11-20T00:23:09;7.40;99.90
8214;DHT22;4148;47.974;7.824;2022-11-20T00:25:37;7.40;99.90
8214;DHT22;4148;47.974;7.824;2022-11-20T00:28:04;7.40;99.90
8214;DHT22;4148;47.974;7.824;2022-11-20T00:30:32;7.40;99.90
8214;DHT22;4148;47.974;7.824;2022-11-20T00:33:02;7.40;99.90
8214;DHT22;4148;47.974;7.824;2022-11-20T00:35:29;7.40;99.90
8214;DHT22;4148;47.974;7.824;2022-11-20T00:37:57;7.40;99.90
8214;DHT22;4148;47.974;7.824;2022-11-20T00:40:25;7.40;99.90
8214;DHT22;4148;47.974;7.824;2022-11-20T00:42:53;7.40;99.90
8214;DHT22;4148;47.974;7.824;2022-11-20T00:45:21;7.40;99.90
8214;DHT22;4148;47.974;7.824;2022-11-20T00:47:49;7.50;99.90
8214;DHT22;4148;47.974;7.824;2022-11-20T00:50:18;7.50;99.90
8214;DHT22;4148;47.974;7.824;2022-11-20T00:52:46;7.40;99.90
8214;DHT22;4148;47.974;7.824;2022-11-20T00:55:14;7.40;99.90
8214;DHT22;4148;47.974;7.824;2022-11-20T00:57:42;7.40;99.90
8214;DHT22;4148;47.974;7.824;2022-11-20T01:00:10;7.30;99.90
8214;DHT22;4148;47.974;7.824;2022-11-20T01:02:38;7.30;99.90
8214;DHT22;4148;47.974;7.824;2022-11-20T01:05:06;7.40;99.90
8214;DHT22;4148;47.974;7.824;2022-11-20T01:07:35;7.30;99.90
8214;DHT22;4148;47.974;7.824;2022-11-20T01:10:04;7.40;99.90
8214;DHT22;4148;47.974;7.824;2022-11-20T01:12:32;7.30;99.90
8214;DHT22;4148;47.974;7.824;2022-11-20T01:15:00;7.40;99.90
8214;DHT22;4148;47.974;7.824;2022-11-20T01:17:27;7.40;99.90
8214;DHT22;4148;47.974;7.824;2022-11-20T01:19:55;7.30;99.90
8214;DHT22;4148;47.974;7.824;2022-11-20T01:22:23;7.40;99.90
8214;DHT22;4148;47.974;7.824;2022-11-20T01:24:52;7.40;99.90
8214;DHT22;4148;47.974;7.824;2022-11-20T01:27:20;7.40;99.90
8214;DHT22;4148;47.974;7.824;2022-11-20T01:29:48;7.40;99.90
8214;DHT22;4148;47.974;7.824;2022-11-20T01:32:16;7.30;99.90
8214;DHT22;4148;47.974;7.824;2022-11-20T01:34:44;7.30;99.90
8214;DHT22;4148;47.974;7.824;2022-11-20T01:37:12;7.20;99.90
8214;DHT22;4148;47.974;7.824;2022-11-20T01:39:40;7.30;99.90
8214;DHT22;4148;47.974;7.824;2022-11-20T01:42:09;7.30;99.90
8214;DHT22;4148;47.974;7.824;2022-11-20T01:44:57;7.30;99.90
8214;DHT22;4148;47.974;7.824;2022-11-20T01:47:29;7.40;99.90
8214;DHT22;4148;47.974;7.824;2022-11-20T01:50:03;7.40;99.90
8214;DHT22;4148;47.974;7.824;2022-11-20T01:52:34;7.40;99.90
8214;DHT22;4148;47.974;7.824;2022-11-20T01:55:05;7.30;99.90
8214;DHT22;4148;47.974;7.824;2022-11-20T01:57:36;7.30;99.90
8214;DHT22;4148;47.974;7.824;2022-11-20T02:00:08;7.40;99.90
8214;DHT22;4148;47.974;7.824;2022-11-20T02:02:36;7.40;99.90
8214;DHT22;4148;47.974;7.824;2022-11-20T02:05:16;7.40;99.90
8214;DHT22;4148;47.974;7.824;2022-11-20T02:07:46;7.40;99.90
8214;DHT22;4148;47.974;7.824;2022-11-20T02:10:15;7.40;99.90
8214;DHT22;4148;47.974;7.824;2022-11-20T02:12:44;7.30;99.90
8214;DHT22;4148;47.974;7.824;2022-11-20T02:15:29;7.40;99.90
8214;DHT22;4148;47.974;7.824;2022-11-20T02:17:57;7.40;99.90
8214;DHT22;4148;47.974;7.824;2022-11-20T02:20:26;7.40;99.90
8214;DHT22;4148;47.974;7.824;2022-11-20T02:22:57;7.50;99.90
8214;DHT22;4148;47.974;7.824;2022-11-20T02:25:27;7.40;99.90
8214;DHT22;4148;47.974;7.824;2022-11-20T02:27:55;7.40;99.90
8214;DHT22;4148;47.974;7.824;2022-11-20T02:30:23;7.40;99.90
8214;DHT22;4148;47.974;7.824;2022-11-20T02:32:51;7.40;99.90
8214;DHT22;4148;47.974;7.824;2022-11-20T02:35:44;7.40;99.90
8214;DHT22;4148;47.974;7.824;2022-11-20T02:38:13;7.40;99.90
8214;DHT22;4148;47.974;7.824;2022-11-20T02:40:42;7.40;99.90
8214;DHT22;4148;47.974;7.824;2022-11-20T02:43:10;7.40;99.90
8214;DHT22;4148;47.974;7.824;2022-11-20T02:45:38;7.30;99.90
8214;DHT22;4148;47.974;7.824;2022-11-20T02:48:07;7.30;99.90
8214;DHT22;4148;47.974;7.824;2022-11-20T02:50:37;7.40;99.90
8214;DHT22;4148;47.974;7.824;2022-11-20T02:53:05;7.50;99.90
8214;DHT22;4148;47.974;7.824;2022-11-20T02:55:33;7.50;99.90
8214;DHT22;4148;47.974;7.824;2022-11-20T02:58:03;7.50;99.90
8214;DHT22;4148;47.974;7.824;2022-11-20T03:00:31;7.50;99.90
8214;DHT22;4148;47.974;7.824;2022-11-20T03:02:59;7.40;99.90
8214;DHT22;4148;47.974;7.824;2022-11-20T03:05:27;7.40;99.90
8214;DHT22;4148;47.974;7.824;2022-11-20T03:07:54;7.50;99.90
8214;DHT22;4148;47.974;7.824;2022-11-20T03:10:22;7.40;99.90
8214;DHT22;4148;47.974;7.824;2022-11-20T03:12:53;7.50;99.90
8214;DHT22;4148;47.974;7.824;2022-11-20T03:15:22;7.40;99.90
8214;DHT22;4148;47.974;7.824;2022-11-20T03:17:53;7.40;99.90
8214;DHT22;4148;47.974;7.824;2022-11-20T03:20:21;7.40;99.90
8214;DHT22;4148;47.974;7.824;2022-11-20T03:22:49;7.30;99.90
8214;DHT22;4148;47.974;7.824;2022-11-20T03:25:17;7.30;99.90
8214;DHT22;4148;47.974;7.824;2022-11-20T03:27:45;7.30;99.90
8214;DHT22;4148;47.974;7.824;2022-11-20T03:30:13;7.40;99.90
8214;DHT22;4148;47.974;7.824;2022-11-20T03:32:43;7.30;99.90
8214;DHT22;4148;47.974;7.824;2022-11-20T03:35:11;7.30;99.90
8214;DHT22;4148;47.974;7.824;2022-11-20T03:37:38;7.40;99.90
8214;DHT22;4148;47.974;7.824;2022-11-20T03:40:07;7.40;99.90
8214;DHT22;4148;47.974;7.824;2022-11-20T03:42:35;7.40;99.90
8214;DHT22;4148;47.974;7.824;2022-11-20T03:45:16;7.40;99.90
8214;DHT22;4148;47.974;7.824;2022-11-20T03:47:46;7.40;99.90
8214;DHT22;4148;47.974;7.824;2022-11-20T03:50:14;7.40;99.90
8214;DHT22;4148;47.974;7.824;2022-11-20T03:52:42;7.40;99.90
8214;DHT22;4148;47.974;7.824;2022-11-20T03:55:10;7.50;99.90
8214;DHT22;4148;47.974;7.824;2022-11-20T03:57:38;7.40;99.90
8214;DHT22;4148;47.974;7.824;2022-11-20T04:00:07;7.40;99.90
8214;DHT22;4148;47.974;7.824;2022-11-20T04:02:35;7.50;99.90
8214;DHT22;4148;47.974;7.824;2022-11-20T04:05:04;7.50;99.90
8214;DHT22;4148;47.974;7.824;2022-11-20T04:07:34;7.50;99.90
8214;DHT22;4148;47.974;7.824;2022-11-20T04:10:02;7.50;99.90
8214;DHT22;4148;47.974;7.824;2022-11-20T04:12:32;7.50;99.90
8214;DHT22;4148;47.974;7.824;2022-11-20T04:15:01;7.40;99.90
8214;DHT22;4148;47.974;7.824;2022-11-20T04:17:28;7.50;99.90
8214;DHT22;4148;47.974;7.824;2022-11-20T04:19:56;7.50;99.90
8214;DHT22;4148;47.974;7.824;2022-11-20T04:22:25;7.40;99.90
8214;DHT22;4148;47.974;7.824;2022-11-20T04:24:53;7.40;99.90
8214;DHT22;4148;47.974;7.824;2022-11-20T04:27:21;7.40;99.90
8214;DHT22;4148;47.974;7.824;2022-11-20T04:29:49;7.40;99.90
8214;DHT22;4148;47.974;7.824;2022-11-20T04:32:17;7.40;99.90
8214;DHT22;4148;47.974;7.824;2022-11-20T04:34:45;7.40;99.90
8214;DHT22;4148;47.974;7.824;2022-11-20T04:37:12;7.40;99.90
8214;DHT22;4148;47.974;7.824;2022-11-20T04:39:42;7.40;99.90
8214;DHT22;4148;47.974;7.824;2022-11-20T04:42:10;7.40;99.90
8214;DHT22;4148;47.974;7.824;2022-11-20T04:44:56;7.40;99.90
8214;DHT22;4148;47.974;7.824;2022-11-20T04:47:24;7.40;99.90
8214;DHT22;4148;47.974;7.824;2022-11-20T04:49:52;7.30;99.90
8214;DHT22;4148;47.974;7.824;2022-11-20T04:52:20;7.30;99.90
8214;DHT22;4148;47.974;7.824;2022-11-20T04:54:49;7.30;99.90
8214;DHT22;4148;47.974;7.824;2022-11-20T04:57:19;7.30;99.90
8214;DHT22;4148;47.974;7.824;2022-11-20T04:59:47;7.30;99.90
8214;DHT22;4148;47.974;7.824;2022-11-20T05:02:15;7.30;99.90
8214;DHT22;4148;47.974;7.824;2022-11-20T05:04:43;7.30;99.90
8214;DHT22;4148;47.974;7.824;2022-11-20T05:07:11;7.30;99.90
8214;DHT22;4148;47.974;7.824;2022-11-20T05:09:39;7.30;99.90
8214;DHT22;4148;47.974;7.824;2022-11-20T05:12:08;7.30;99.90
8214;DHT22;4148;47.974;7.824;2022-11-20T05:14:36;7.30;99.90
8214;DHT22;4148;47.974;7.824;2022-11-20T05:17:04;7.30;99.90
8214;DHT22;4148;47.974;7.824;2022-11-20T05:19:32;7.30;99.90
8214;DHT22;4148;47.974;7.824;2022-11-20T05:22:00;7.30;99.90
8214;DHT22;4148;47.974;7.824;2022-11-20T05:24:28;7.30;99.90
8214;DHT22;4148;47.974;7.824;2022-11-20T05:26:55;7.20;99.90
8214;DHT22;4148;47.974;7.824;2022-11-20T05:29:25;7.20;99.90
8214;DHT22;4148;47.974;7.824;2022-11-20T05:31:52;7.20;99.90
8214;DHT22;4148;47.974;7.824;2022-11-20T05:34:20;7.10;99.90
8214;DHT22;4148;47.974;7.824;2022-11-20T05:36:48;7.20;99.90
8214;DHT22;4148;47.974;7.824;2022-11-20T05:39:16;7.30;99.90
8214;DHT22;4148;47.974;7.824;2022-11-20T05:41:44;7.30;99.90
8214;DHT22;4148;47.974;7.824;2022-11-20T05:44:12;7.30;99.90
8214;DHT22;4148;47.974;7.824;2022-11-20T05:46:41;7.30;99.90
8214;DHT22;4148;47.974;7.824;2022-11-20T05:49:09;7.20;99.90
8214;DHT22;4148;47.974;7.824;2022-11-20T05:51:37;7.20;99.90
8214;DHT22;4148;47.974;7.824;2022-11-20T05:54:05;7.20;99.90
8214;DHT22;4148;47.974;7.824;2022-11-20T05:56:33;7.30;99.90
8214;DHT22;4148;47.974;7.824;2022-11-20T05:59:00;7.20;99.90
8214;DHT22;4148;47.974;7.824;2022-11-20T06:01:28;7.30;99.90
8214;DHT22;4148;47.974;7.824;2022-11-20T06:03:57;7.30;99.90
8214;DHT22;4148;47.974;7.824;2022-11-20T06:06:25;7.30;99.90
8214;DHT22;4148;47.974;7.824;2022-11-20T06:08:54;7.30;99.90
8214;DHT22;4148;47.974;7.824;2022-11-20T06:11:22;7.30;99.90
8214;DHT22;4148;47.974;7.824;2022-11-20T06:13:50;7.40;99.90
8214;DHT22;4148;47.974;7.824;2022-11-20T06:16:19;7.40;99.90
8214;DHT22;4148;47.974;7.824;2022-11-20T06:18:48;7.40;99.90
8214;DHT22;4148;47.974;7.824;2022-11-20T06:21:18;7.30;99.90
8214;DHT22;4148;47.974;7.824;2022-11-20T06:23:47;7.30;99.90
8214;DHT22;4148;47.974;7.824;2022-11-20T06:26:17;7.30;99.90
8214;DHT22;4148;47.974;7.824;2022-11-20T06:28:45;7.40;99.90
8214;DHT22;4148;47.974;7.824;2022-11-20T06:31:14;7.30;99.90
8214;DHT22;4148;47.974;7.824;2022-11-20T06:33:43;7.30;99.90
8214;DHT22;4148;47.974;7.824;2022-11-20T06:36:12;7.30;99.90
8214;DHT22;4148;47.974;7.824;2022-11-20T06:38:42;7.30;99.90
8214;DHT22;4148;47.974;7.824;2022-11-20T06:41:11;7.30;99.90
8214;DHT22;4148;47.974;7.824;2022-11-20T06:43:39;7.30;99.90
8214;DHT22;4148;47.974;7.824;2022-11-20T06:46:09;7.30;99.90
8214;DHT22;4148;47.974;7.824;2022-11-20T06:48:38;7.30;99.90
8214;DHT22;4148;47.974;7.824;2022-11-20T06:51:07;7.30;99.90
8214;DHT22;4148;47.974;7.824;2022-11-20T06:53:35;7.30;99.90
8214;DHT22;4148;47.974;7.824;2022-11-20T06:56:06;7.30;99.90
8214;DHT22;4148;47.974;7.824;2022-11-20T06:58:34;7.20;99.90
8214;DHT22;4148;47.974;7.824;2022-11-20T07:01:05;7.20;99.90
8214;DHT22;4148;47.974;7.824;2022-11-20T07:03:33;7.20;99.90
8214;DHT22;4148;47.974;7.824;2022-11-20T07:06:02;7.30;99.90
8214;DHT22;4148;47.974;7.824;2022-11-20T07:08:31;7.30;99.90
8214;DHT22;4148;47.974;7.824;2022-11-20T07:11:00;7.30;99.90
8214;DHT22;4148;47.974;7.824;2022-11-20T07:13:29;7.30;99.90
8214;DHT22;4148;47.974;7.824;2022-11-20T07:16:00;7.30;99.90
8214;DHT22;4148;47.974;7.824;2022-11-20T07:18:28;7.30;99.90
8214;DHT22;4148;47.974;7.824;2022-11-20T07:20:59;7.30;99.90
8214;DHT22;4148;47.974;7.824;2022-11-20T07:23:27;7.30;99.90
8214;DHT22;4148;47.974;7.824;2022-11-20T07:25:55;7.30;99.90
8214;DHT22;4148;47.974;7.824;2022-11-20T07:28:23;7.40;99.90
8214;DHT22;4148;47.974;7.824;2022-11-20T07:30:52;7.50;99.90
8214;DHT22;4148;47.974;7.824;2022-11-20T07:33:20;7.50;99.90
8214;DHT22;4148;47.974;7.824;2022-11-20T07:35:48;7.50;99.90
8214;DHT22;4148;47.974;7.824;2022-11-20T07:38:16;7.40;99.90
8214;DHT22;4148;47.974;7.824;2022-11-20T07:40:44;7.40;99.90
8214;DHT22;4148;47.974;7.824;2022-11-20T07:43:12;7.40;99.90
8214;DHT22;4148;47.974;7.824;2022-11-20T07:45:40;7.40;99.90
8214;DHT22;4148;47.974;7.824;2022-11-20T07:48:09;7.40;99.90
8214;DHT22;4148;47.974;7.824;2022-11-20T07:50:37;7.40;99.90
8214;DHT22;4148;47.974;7.824;2022-11-20T07:53:05;7.50;99.90
8214;DHT22;4148;47.974;7.824;2022-11-20T07:55:33;7.40;99.90
8214;DHT22;4148;47.974;7.824;2022-11-20T07:58:01;7.30;99.90
8214;DHT22;4148;47.974;7.824;2022-11-20T08:00:29;7.30;99.90
8214;DHT22;4148;47.974;7.824;2022-11-20T08:02:57;7.40;99.90
8214;DHT22;4148;47.974;7.824;2022-11-20T08:05:26;7.40;99.90
8214;DHT22;4148;47.974;7.824;2022-11-20T08:07:54;7.40;99.90
8214;DHT22;4148;47.974;7.824;2022-11-20T08:10:22;7.30;99.90
8214;DHT22;4148;47.974;7.824;2022-11-20T08:12:51;7.30;99.90
8214;DHT22;4148;47.974;7.824;2022-11-20T08:15:37;7.30;99.90
8214;DHT22;4148;47.974;7.824;2022-11-20T08:18:07;7.40;99.90
8214;DHT22;4148;47.974;7.824;2022-11-20T08:20:56;7.30;99.90
8214;DHT22;4148;47.974;7.824;2022-11-20T08:23:24;7.30;99.90
8214;DHT22;4148;47.974;7.824;2022-11-20T08:25:52;7.30;99.90
8214;DHT22;4148;47.974;7.824;2022-11-20T08:28:20;7.20;99.90
8214;DHT22;4148;47.974;7.824;2022-11-20T08:30:48;7.20;99.90
8214;DHT22;4148;47.974;7.824;2022-11-20T08:33:17;7.20;99.90
8214;DHT22;4148;47.974;7.824;2022-11-20T08:35:45;7.30;99.90
8214;DHT22;4148;47.974;7.824;2022-11-20T08:38:14;7.30;99.90
8214;DHT22;4148;47.974;7.824;2022-11-20T08:40:42;7.30;99.90
8214;DHT22;4148;47.974;7.824;2022-11-20T08:43:31;7.40;99.90
8214;DHT22;4148;47.974;7.824;2022-11-20T08:46:00;7.40;99.90
8214;DHT22;4148;47.974;7.824;2022-11-20T08:48:28;7.40;99.90
8214;DHT22;4148;47.974;7.824;2022-11-20T08:50:57;7.50;99.90
8214;DHT22;4148;47.974;7.824;2022-11-20T08:53:27;7.40;99.90
8214;DHT22;4148;47.974;7.824;2022-11-20T08:55:56;7.50;99.90
8214;DHT22;4148;47.974;7.824;2022-11-20T08:58:25;7.60;99.90
8214;DHT22;4148;47.974;7.824;2022-11-20T09:00:53;7.60;99.90
8214;DHT22;4148;47.974;7.824;2022-11-20T09:03:21;7.60;99.90
8214;DHT22;4148;47.974;7.824;2022-11-20T09:05:57;7.60;99.90
8214;DHT22;4148;47.974;7.824;2022-11-20T09:08:28;7.50;99.90
8214;DHT22;4148;47.974;7.824;2022-11-20T09:10:57;7.50;99.90
8214;DHT22;4148;47.974;7.824;2022-11-20T09:13:26;7.50;99.90
8214;DHT22;4148;47.974;7.824;2022-11-20T09:15:55;7.60;99.90
8214;DHT22;4148;47.974;7.824;2022-11-20T09:18:23;7.70;99.90
8214;DHT22;4148;47.974;7.824;2022-11-20T09:20:51;7.60;99.90
8214;DHT22;4148;47.974;7.824;2022-11-20T09:23:20;7.60;99.90
8214;DHT22;4148;47.974;7.824;2022-11-20T09:25:49;7.50;99.90
8214;DHT22;4148;47.974;7.824;2022-11-20T09:28:17;7.50;99.90
8214;DHT22;4148;47.974;7.824;2022-11-20T09:30:45;7.60;99.90
8214;DHT22;4148;47.974;7.824;2022-11-20T09:33:12;7.70;99.90
8214;DHT22;4148;47.974;7.824;2022-11-20T09:35:40;7.80;99.90
8214;DHT22;4148;47.974;7.824;2022-11-20T09:38:10;7.70;99.90
8214;DHT22;4148;47.974;7.824;2022-11-20T09:40:40;7.70;99.90
8214;DHT22;4148;47.974;7.824;2022-11-20T09:43:15;7.80;99.90
8214;DHT22;4148;47.974;7.824;2022-11-20T09:45:54;7.80;99.90
8214;DHT22;4148;47.974;7.824;2022-11-20T09:48:57;7.80;99.90
8214;DHT22;4148;47.974;7.824;2022-11-20T09:51:36;7.70;99.90
8214;DHT22;4148;47.974;7.824;2022-11-20T09:54:15;7.80;99.90
8214;DHT22;4148;47.974;7.824;2022-11-20T09:56:46;7.90;99.90
8214;DHT22;4148;47.974;7.824;2022-11-20T09:59:27;7.90;99.90
8214;DHT22;4148;47.974;7.824;2022-11-20T10:01:57;7.90;99.90
8214;DHT22;4148;47.974;7.824;2022-11-20T10:04:26;7.90;99.90
8214;DHT22;4148;47.974;7.824;2022-11-20T10:07:04;8.00;99.90
8214;DHT22;4148;47.974;7.824;2022-11-20T10:09:56;7.90;99.90
8214;DHT22;4148;47.974;7.824;2022-11-20T10:12:29;7.90;99.90
8214;DHT22;4148;47.974;7.824;2022-11-20T10:15:11;8.00;99.90
8214;DHT22;4148;47.974;7.824;2022-11-20T10:17:55;8.00;99.90
8214;DHT22;4148;47.974;7.824;2022-11-20T10:20:30;8.00;99.90
8214;DHT22;4148;47.974;7.824;2022-11-20T10:23:19;8.00;99.90
8214;DHT22;4148;47.974;7.824;2022-11-20T10:25:58;8.00;99.90
8214;DHT22;4148;47.974;7.824;2022-11-20T10:28:34;8.00;99.90
8214;DHT22;4148;47.974;7.824;2022-11-20T10:31:10;8.10;99.90
8214;DHT22;4148;47.974;7.824;2022-11-20T10:33:42;8.00;99.90
8214;DHT22;4148;47.974;7.824;2022-11-20T10:36:35;8.00;99.90
8214;DHT22;4148;47.974;7.824;2022-11-20T10:39:12;8.00;99.90
8214;DHT22;4148;47.974;7.824;2022-11-20T10:41:42;8.10;99.90
8214;DHT22;4148;47.974;7.824;2022-11-20T10:44:16;8.10;99.90
8214;DHT22;4148;47.974;7.824;2022-11-20T10:47:13;8.10;99.90
8214;DHT22;4148;47.974;7.824;2022-11-20T10:49:42;8.10;99.90
8214;DHT22;4148;47.974;7.824;2022-11-20T10:52:16;8.20;99.90
8214;DHT22;4148;47.974;7.824;2022-11-20T10:54:52;8.20;99.90
8214;DHT22;4148;47.974;7.824;2022-11-20T10:57:34;8.20;99.90
8214;DHT22;4148;47.974;7.824;2022-11-20T11:00:08;8.30;99.90
8214;DHT22;4148;47.974;7.824;2022-11-20T11:02:43;8.30;99.90
8214;DHT22;4148;47.974;7.824;2022-11-20T11:05:22;8.40;99.90
8214;DHT22;4148;47.974;7.824;2022-11-20T11:07:54;8.30;99.90
8214;DHT22;4148;47.974;7.824;2022-11-20T11:10:26;8.40;99.90
8214;DHT22;4148;47.974;7.824;2022-11-20T11:12:55;8.40;99.90
8214;DHT22;4148;47.974;7.824;2022-11-20T11:15:28;8.40;99.90
8214;DHT22;4148;47.974;7.824;2022-11-20T11:17:58;8.40;99.90
8214;DHT22;4148;47.974;7.824;2022-11-20T11:20:26;8.50;99.90
8214;DHT22;4148;47.974;7.824;2022-11-20T11:22:55;8.70;99.90
8214;DHT22;4148;47.974;7.824;2022-11-20T11:25:29;8.70;99.90
8214;DHT22;4148;47.974;7.824;2022-11-20T11:28:01;8.80;99.90
8214;DHT22;4148;47.974;7.824;2022-11-20T11:30:40;8.80;99.90
8214;DHT22;4148;47.974;7.824;2022-11-20T11:33:11;8.80;99.90
8214;DHT22;4148;47.974;7.824;2022-11-20T11:35:45;8.80;99.90
8214;DHT22;4148;47.974;7.824;2022-11-20T11:38:21;8.80;99.90
8214;DHT22;4148;47.974;7.824;2022-11-20T11:40:53;8.70;99.90
8214;DHT22;4148;47.974;7.824;2022-11-20T11:43:23;8.70;99.90
8214;DHT22;4148;47.974;7.824;2022-11-20T11:46:26;8.60;99.90
8214;DHT22;4148;47.974;7.824;2022-11-20T11:48:57;8.60;99.90
8214;DHT22;4148;47.974;7.824;2022-11-20T11:51:28;8.60;99.90
8214;DHT22;4148;47.974;7.824;2022-11-20T11:53:58;8.90;99.90
8214;DHT22;4148;47.974;7.824;2022-11-20T11:56:29;9.10;99.90
8214;DHT22;4148;47.974;7.824;2022-11-20T11:59:00;9.20;99.90
8214;DHT22;4148;47.974;7.824;2022-11-20T12:01:35;9.10;99.90
8214;DHT22;4148;47.974;7.824;2022-11-20T12:04:16;9.20;99.90
8214;DHT22;4148;47.974;7.824;2022-11-20T12:06:50;9.10;99.90
8214;DHT22;4148;47.974;7.824;2022-11-20T12:09:22;9.00;99.90
8214;DHT22;4148;47.974;7.824;2022-11-20T12:11:55;9.10;99.90
8214;DHT22;4148;47.974;7.824;2022-11-20T12:14:32;9.30;99.90
8214;DHT22;4148;47.974;7.824;2022-11-20T12:17:02;9.60;99.90
8214;DHT22;4148;47.974;7.824;2022-11-20T12:19:34;9.80;99.90
8214;DHT22;4148;47.974;7.824;2022-11-20T12:22:07;9.90;99.90
8214;DHT22;4148;47.974;7.824;2022-11-20T12:24:47;9.80;99.90
8214;DHT22;4148;47.974;7.824;2022-11-20T12:27:49;9.60;99.90
8214;DHT22;4148;47.974;7.824;2022-11-20T12:30:21;9.40;99.90
8214;DHT22;4148;47.974;7.824;2022-11-20T12:33:02;9.20;99.90
8214;DHT22;4148;47.974;7.824;2022-11-20T12:35:51;9.10;99.90
8214;DHT22;4148;47.974;7.824;2022-11-20T12:38:45;9.00;99.90
8214;DHT22;4148;47.974;7.824;2022-11-20T12:41:27;9.00;99.90
8214;DHT22;4148;47.974;7.824;2022-11-20T12:44:24;8.90;99.90
8214;DHT22;4148;47.974;7.824;2022-11-20T12:47:21;8.80;99.90
8214;DHT22;4148;47.974;7.824;2022-11-20T12:49:58;8.80;99.90
8214;DHT22;4148;47.974;7.824;2022-11-20T12:52:38;8.80;99.90
8214;DHT22;4148;47.974;7.824;2022-11-20T12:58:00;8.80;99.90
8214;DHT22;4148;47.974;7.824;2022-11-20T13:00:34;8.80;99.90
8214;DHT22;4148;47.974;7.824;2022-11-20T13:06:01;8.80;99.90
8214;DHT22;4148;47.974;7.824;2022-11-20T13:08:36;8.80;99.90
8214;DHT22;4148;47.974;7.824;2022-11-20T13:11:10;8.70;99.90
8214;DHT22;4148;47.974;7.824;2022-11-20T13:13:45;8.80;99.90
8214;DHT22;4148;47.974;7.824;2022-11-20T13:16:22;8.80;99.90
8214;DHT22;4148;47.974;7.824;2022-11-20T13:18:51;8.90;99.90
8214;DHT22;4148;47.974;7.824;2022-11-20T13:21:21;8.90;99.90
8214;DHT22;4148;47.974;7.824;2022-11-20T13:23:51;8.90;99.90
8214;DHT22;4148;47.974;7.824;2022-11-20T13:26:21;9.00;99.90
8214;DHT22;4148;47.974;7.824;2022-11-20T13:29:02;9.00;99.90
8214;DHT22;4148;47.974;7.824;2022-11-20T13:31:33;9.10;99.90
8214;DHT22;4148;47.974;7.824;2022-11-20T13:34:04;9.10;99.90
8214;DHT22;4148;47.974;7.824;2022-11-20T13:36:33;9.10;99.90
8214;DHT22;4148;47.974;7.824;2022-11-20T13:39:04;9.10;99.90
8214;DHT22;4148;47.974;7.824;2022-11-20T13:41:34;9.10;99.90
8214;DHT22;4148;47.974;7.824;2022-11-20T13:44:14;9.10;99.90
8214;DHT22;4148;47.974;7.824;2022-11-20T13:46:43;9.00;99.90
8214;DHT22;4148;47.974;7.824;2022-11-20T13:49:25;9.00;99.90
8214;DHT22;4148;47.974;7.824;2022-11-20T13:52:03;8.90;99.90
8214;DHT22;4148;47.974;7.824;2022-11-20T13:55:00;9.00;99.90
8214;DHT22;4148;47.974;7.824;2022-11-20T13:57:56;9.00;99.90
8214;DHT22;4148;47.974;7.824;2022-11-20T14:00:26;8.90;99.90
8214;DHT22;4148;47.974;7.824;2022-11-20T14:03:09;8.90;99.90
8214;DHT22;4148;47.974;7.824;2022-11-20T14:05:49;8.90;99.90
8214;DHT22;4148;47.974;7.824;2022-11-20T14:08:25;8.80;99.90
8214;DHT22;4148;47.974;7.824;2022-11-20T14:11:15;8.80;99.90
8214;DHT22;4148;47.974;7.824;2022-11-20T14:13:55;8.60;99.90
8214;DHT22;4148;47.974;7.824;2022-11-20T14:16:24;8.60;99.90
8214;DHT22;4148;47.974;7.824;2022-11-20T14:18:53;8.70;99.90
8214;DHT22;4148;47.974;7.824;2022-11-20T14:21:23;8.70;99.90
8214;DHT22;4148;47.974;7.824;2022-11-20T14:23:53;8.70;99.90
8214;DHT22;4148;47.974;7.824;2022-11-20T14:26:23;8.70;99.90
8214;DHT22;4148;47.974;7.824;2022-11-20T14:28:51;8.70;99.90
8214;DHT22;4148;47.974;7.824;2022-11-20T14:31:23;8.70;99.90
8214;DHT22;4148;47.974;7.824;2022-11-20T14:33:52;8.80;99.90
8214;DHT22;4148;47.974;7.824;2022-11-20T14:36:22;8.70;99.90
8214;DHT22;4148;47.974;7.824;2022-11-20T14:38:51;8.70;99.90
8214;DHT22;4148;47.974;7.824;2022-11-20T14:41:21;8.70;99.90
8214;DHT22;4148;47.974;7.824;2022-11-20T14:43:55;8.70;99.90
8214;DHT22;4148;47.974;7.824;2022-11-20T14:46:24;8.70;99.90
8214;DHT22;4148;47.974;7.824;2022-11-20T14:48:55;8.60;99.90
8214;DHT22;4148;47.974;7.824;2022-11-20T14:51:28;8.60;99.90
8214;DHT22;4148;47.974;7.824;2022-11-20T14:54:08;8.60;99.90
8214;DHT22;4148;47.974;7.824;2022-11-20T14:56:36;8.60;99.90
8214;DHT22;4148;47.974;7.824;2022-11-20T14:59:06;8.60;99.90
8214;DHT22;4148;47.974;7.824;2022-11-20T15:01:35;8.50;99.90
8214;DHT22;4148;47.974;7.824;2022-11-20T15:04:07;8.50;99.90
8214;DHT22;4148;47.974;7.824;2022-11-20T15:06:37;8.50;99.90
8214;DHT22;4148;47.974;7.824;2022-11-20T15:09:12;8.30;99.90
8214;DHT22;4148;47.974;7.824;2022-11-20T15:11:52;8.30;99.90
8214;DHT22;4148;47.974;7.824;2022-11-20T15:14:23;8.30;99.90
8214;DHT22;4148;47.974;7.824;2022-11-20T15:16:52;8.30;99.90
8214;DHT22;4148;47.974;7.824;2022-11-20T15:19:22;8.30;99.90
8214;DHT22;4148;47.974;7.824;2022-11-20T15:21:50;8.30;99.90
8214;DHT22;4148;47.974;7.824;2022-11-20T15:24:19;8.20;99.90
8214;DHT22;4148;47.974;7.824;2022-11-20T15:26:47;8.30;99.90
8214;DHT22;4148;47.974;7.824;2022-11-20T15:29:15;8.30;99.90
8214;DHT22;4148;47.974;7.824;2022-11-20T15:31:47;8.30;99.90
8214;DHT22;4148;47.974;7.824;2022-11-20T15:34:15;8.20;99.90
8214;DHT22;4148;47.974;7.824;2022-11-20T15:36:43;8.20;99.90
8214;DHT22;4148;47.974;7.824;2022-11-20T15:39:11;8.20;99.90
8214;DHT22;4148;47.974;7.824;2022-11-20T15:41:39;8.10;99.90
8214;DHT22;4148;47.974;7.824;2022-11-20T15:44:07;8.20;99.90
8214;DHT22;4148;47.974;7.824;2022-11-20T15:46:37;8.20;99.90
8214;DHT22;4148;47.974;7.824;2022-11-20T15:49:12;8.20;99.90
8214;DHT22;4148;47.974;7.824;2022-11-20T15:51:42;8.20;99.90
8214;DHT22;4148;47.974;7.824;2022-11-20T15:54:12;8.30;99.90
8214;DHT22;4148;47.974;7.824;2022-11-20T15:56:41;8.30;99.90
8214;DHT22;4148;47.974;7.824;2022-11-20T15:59:09;8.30;99.90
8214;DHT22;4148;47.974;7.824;2022-11-20T16:01:37;8.30;99.90
8214;DHT22;4148;47.974;7.824;2022-11-20T16:04:07;8.30;99.90
8214;DHT22;4148;47.974;7.824;2022-11-20T16:06:38;8.40;99.90
8214;DHT22;4148;47.974;7.824;2022-11-20T16:09:06;8.30;99.90
8214;DHT22;4148;47.974;7.824;2022-11-20T16:11:35;8.20;99.90
8214;DHT22;4148;47.974;7.824;2022-11-20T16:14:04;8.20;99.90
8214;DHT22;4148;47.974;7.824;2022-11-20T16:16:50;8.20;99.90
8214;DHT22;4148;47.974;7.824;2022-11-20T16:19:18;8.30;99.90
8214;DHT22;4148;47.974;7.824;2022-11-20T16:21:48;8.30;99.90
8214;DHT22;4148;47.974;7.824;2022-11-20T16:24:15;8.30;99.90
8214;DHT22;4148;47.974;7.824;2022-11-20T16:26:43;8.30;99.90
8214;DHT22;4148;47.974;7.824;2022-11-20T16:29:11;8.30;99.90
8214;DHT22;4148;47.974;7.824;2022-11-20T16:31:39;8.30;99.90
8214;DHT22;4148;47.974;7.824;2022-11-20T16:34:07;8.40;99.90
8214;DHT22;4148;47.974;7.824;2022-11-20T16:36:39;8.40;99.90
8214;DHT22;4148;47.974;7.824;2022-11-20T16:39:09;8.30;99.90
8214;DHT22;4148;47.974;7.824;2022-11-20T16:41:37;8.20;99.90
8214;DHT22;4148;47.974;7.824;2022-11-20T16:44:07;8.30;99.90
8214;DHT22;4148;47.974;7.824;2022-11-20T16:46:36;8.40;99.90
8214;DHT22;4148;47.974;7.824;2022-11-20T16:49:06;8.40;99.90